Time;durP1;ratioP1;P1;durP2;ratioP2;P2;SDS_P1;SDS_P2;PMS_P1;PMS_P2;Temp;Humidity;BMP_temperature;BMP_pressure;BME280_temperature;BME280_humidity;BME280_pressure;Samples;Min_cycle;Max_cycle;Signal;HPM_P1;HPM_P2
2022/10/03 00:01:27;;;;;;;3.13;1.98;;;;;;;;;;12787159;23;20029;-84
2022/10/03 00:06:44;;;;;;;3.63;1.70;;;;;;;;;;12813191;23;20025;-83
2022/10/03 00:12:02;;;;;;;1.98;1.58;;;;;;;;;;12786803;23;20031;-84
2022/10/03 00:17:13;;;;;;;3.58;2.03;;;;;;;;;;12785766;23;20024;-83
2022/10/03 00:22:31;;;;;;;2.97;1.73;;;;;;;;;;12788887;23;20021;-84
2022/10/03 00:27:39;;;;;;;3.03;2.30;;;;;;;;;;12790068;23;20024;-83
2022/10/03 00:33:02;;;;;;;3.85;1.95;;;;;;;;;;12789899;23;20031;-83
2022/10/03 00:38:36;;;;;;;2.95;2.20;;;;;;;;;;12790634;23;20035;-84
2022/10/03 00:44:19;;;;;;;3.17;2.10;;;;;;;;;;12794245;23;20019;-83
2022/10/03 00:50:01;;;;;;;3.80;2.17;;;;;;;;;;12827736;23;20039;-82
2022/10/03 00:55:20;;;;;;;5.63;2.22;;;;;;;;;;12821204;23;20120;-83
2022/10/03 01:00:26;;;;;;;6.22;2.17;;;;;;;;;;12788023;23;20063;-83
2022/10/03 01:05:44;;;;;;;3.92;2.38;;;;;;;;;;12783829;23;20112;-84
2022/10/03 01:10:56;;;;;;;4.43;2.47;;;;;;;;;;12817171;23;20362;-83
2022/10/03 01:16:10;;;;;;;3.83;2.13;;;;;;;;;;12789015;23;20020;-83
2022/10/03 01:21:25;;;;;;;4.15;2.50;;;;;;;;;;12790069;23;20028;-83
2022/10/03 01:26:53;;;;;;;4.43;2.40;;;;;;;;;;12791336;23;20048;-83
2022/10/03 01:32:04;;;;;;;5.80;2.72;;;;;;;;;;12791713;23;20108;-83
2022/10/03 01:37:14;;;;;;;3.60;2.40;;;;;;;;;;12791940;23;20017;-83
2022/10/03 01:42:30;;;;;;;4.80;2.85;;;;;;;;;;12791843;23;20033;-84
2022/10/03 01:47:48;;;;;;;3.28;2.35;;;;;;;;;;12835640;23;20021;-83
2022/10/03 01:52:58;;;;;;;5.20;2.78;;;;;;;;;;12770823;23;20451;-83
2022/10/03 01:58:07;;;;;;;4.20;2.33;;;;;;;;;;12788906;23;20115;-83
2022/10/03 02:03:20;;;;;;;4.90;2.40;;;;;;;;;;12789189;23;20079;-84
2022/10/03 02:08:32;;;;;;;4.82;2.08;;;;;;;;;;12789273;23;20056;-83
2022/10/03 02:13:45;;;;;;;3.50;2.13;;;;;;;;;;12831513;23;20720;-84
2022/10/03 02:18:54;;;;;;;3.22;2.10;;;;;;;;;;12790566;23;20021;-82
2022/10/03 02:24:17;;;;;;;2.47;2.17;;;;;;;;;;12790416;23;20021;-83
2022/10/03 02:29:47;;;;;;;3.08;2.20;;;;;;;;;;12790964;23;20555;-82
2022/10/03 02:35:16;;;;;;;2.90;2.40;;;;;;;;;;12790556;23;20686;-82
2022/10/03 02:40:48;;;;;;;3.50;2.13;;;;;;;;;;12822454;23;20024;-82
2022/10/03 02:46:24;;;;;;;4.18;2.35;;;;;;;;;;12789911;23;20080;-82
2022/10/03 02:51:59;;;;;;;4.38;2.08;;;;;;;;;;12810233;23;20028;-83
2022/10/03 02:57:28;;;;;;;3.38;2.05;;;;;;;;;;12774173;23;20035;-82
2022/10/03 03:03:13;;;;;;;5.32;2.80;;;;;;;;;;12792889;23;20107;-82
2022/10/03 03:08:59;;;;;;;4.43;2.78;;;;;;;;;;12788136;23;20474;-83
2022/10/03 03:14:28;;;;;;;3.25;2.05;;;;;;;;;;12777819;23;20265;-83
2022/10/03 03:19:51;;;;;;;3.05;2.10;;;;;;;;;;12745267;23;20055;-83
2022/10/03 03:25:10;;;;;;;2.88;2.13;;;;;;;;;;12791950;23;20116;-82
2022/10/03 03:30:16;;;;;;;3.58;2.08;;;;;;;;;;12790855;23;20348;-82
2022/10/03 03:35:29;;;;;;;3.35;2.20;;;;;;;;;;12793673;23;20032;-83
2022/10/03 03:40:42;;;;;;;3.20;2.30;;;;;;;;;;12792671;23;20024;-84
2022/10/03 03:46:03;;;;;;;2.72;1.83;;;;;;;;;;12792215;23;20025;-84
2022/10/03 03:51:20;;;;;;;4.78;2.25;;;;;;;;;;12792219;23;20031;-83
2022/10/03 03:57:02;;;;;;;2.58;1.85;;;;;;;;;;12793952;23;20350;-84
2022/10/03 04:02:20;;;;;;;3.97;2.25;;;;;;;;;;12796666;23;20020;-84
2022/10/03 04:07:35;;;;;;;2.40;1.70;;;;;;;;;;12795384;23;20025;-84
2022/10/03 04:13:06;;;;;;;2.30;1.73;;;;;;;;;;12795557;23;20028;-84
2022/10/03 04:24:02;;;;;;;2.72;1.73;;;;;;;;;;12771778;23;20509;-85
2022/10/03 04:29:34;;;;;;;2.63;1.65;;;;;;;;;;12795165;23;20021;-84
2022/10/03 04:34:54;;;;;;;2.60;2.13;;;;;;;;;;12792629;23;20031;-84
2022/10/03 04:40:08;;;;;;;3.50;2.45;;;;;;;;;;12793227;23;20024;-83
2022/10/03 04:45:36;;;;;;;3.92;2.33;;;;;;;;;;12791491;23;20024;-83
2022/10/03 04:50:44;;;;;;;2.20;1.98;;;;;;;;;;12772941;23;20056;-84
2022/10/03 04:55:52;;;;;;;3.38;1.88;;;;;;;;;;12792320;23;20111;-85
2022/10/03 05:01:06;;;;;;;3.92;2.08;;;;;;;;;;12820369;23;20031;-83
2022/10/03 05:06:24;;;;;;;3.35;2.00;;;;;;;;;;12819780;23;20584;-84
2022/10/03 05:11:48;;;;;;;2.80;1.85;;;;;;;;;;12793357;23;20499;-84
2022/10/03 05:17:02;;;;;;;2.70;1.92;;;;;;;;;;12792775;23;20020;-84
2022/10/03 05:22:16;;;;;;;3.85;1.80;;;;;;;;;;12793975;23;20025;-83
2022/10/03 05:27:25;;;;;;;3.15;1.63;;;;;;;;;;12843394;23;20051;-83
2022/10/03 05:32:37;;;;;;;3.20;2.13;;;;;;;;;;12793287;23;20016;-83
2022/10/03 05:38:03;;;;;;;4.60;2.58;;;;;;;;;;12793825;23;20112;-84
2022/10/03 05:43:24;;;;;;;5.97;1.98;;;;;;;;;;12796204;23;20032;-85
2022/10/03 05:48:45;;;;;;;5.45;2.00;;;;;;;;;;12794923;23;20530;-84
2022/10/03 05:54:22;;;;;;;2.15;1.63;;;;;;;;;;12796679;23;20021;-84
2022/10/03 05:59:42;;;;;;;2.78;2.03;;;;;;;;;;12796479;23;20340;-85
2022/10/03 06:05:13;;;;;;;3.20;1.75;;;;;;;;;;12794165;23;20531;-85
2022/10/03 06:10:43;;;;;;;2.33;1.50;;;;;;;;;;12811401;23;20024;-84
2022/10/03 06:15:59;;;;;;;3.60;1.65;;;;;;;;;;12825899;23;20095;-84
2022/10/03 06:21:39;;;;;;;3.80;2.05;;;;;;;;;;12795914;23;20044;-84
2022/10/03 06:27:28;;;;;;;1.80;1.40;;;;;;;;;;12793137;23;20059;-84
2022/10/03 06:38:23;;;;;;;4.55;1.50;;;;;;;;;;10781352;22;20134;-83
2022/10/03 06:43:57;;;;;;;2.80;1.60;;;;;;;;;;10460888;27;20040;-83
2022/10/03 06:49:31;;;;;;;6.43;2.33;;;;;;;;;;10468003;28;20043;-84
2022/10/03 06:55:20;;;;;;;6.65;2.50;;;;;;;;;;10473799;28;20040;-83
2022/10/03 07:00:41;;;;;;;3.88;1.80;;;;;;;;;;10423693;28;20036;-84
2022/10/03 07:06:26;;;;;;;2.78;1.60;;;;;;;;;;10482865;28;20060;-82
2022/10/03 07:11:56;;;;;;;3.05;1.48;;;;;;;;;;10428542;28;20041;-82
2022/10/03 07:17:21;;;;;;;6.85;1.50;;;;;;;;;;10507725;28;20060;-82
2022/10/03 07:22:52;;;;;;;5.50;1.73;;;;;;;;;;10489727;28;20140;-81
2022/10/03 07:28:21;;;;;;;4.38;1.63;;;;;;;;;;10467284;28;20071;-81
2022/10/03 07:33:53;;;;;;;7.85;2.40;;;;;;;;;;10487182;28;20045;-83
2022/10/03 07:39:15;;;;;;;3.47;1.88;;;;;;;;;;10451117;28;20059;-83
2022/10/03 07:44:47;;;;;;;12.27;4.50;;;;;;;;;;10473040;28;20037;-82
2022/10/03 07:50:07;;;;;;;7.40;2.33;;;;;;;;;;10420650;28;20041;-83
2022/10/03 07:55:26;;;;;;;4.80;2.05;;;;;;;;;;10425584;28;20037;-82
2022/10/03 08:00:42;;;;;;;6.95;2.20;;;;;;;;;;10433603;28;20052;-82
2022/10/03 08:06:07;;;;;;;4.75;2.20;;;;;;;;;;10448154;28;20044;-83
2022/10/03 08:11:27;;;;;;;4.35;2.20;;;;;;;;;;10445227;28;20522;-82
2022/10/03 08:16:49;;;;;;;10.60;3.33;;;;;;;;;;10453047;28;20095;-82
2022/10/03 08:22:06;;;;;;;4.18;1.65;;;;;;;;;;10425219;28;20060;-86
2022/10/03 08:27:35;;;;;;;13.38;4.90;;;;;;;;;;10426073;28;20444;-85
2022/10/03 08:33:05;;;;;;;4.32;2.25;;;;;;;;;;10438645;28;20070;-85
2022/10/03 08:38:50;;;;;;;3.05;1.88;;;;;;;;;;10388789;28;20044;-86
2022/10/03 08:44:30;;;;;;;4.43;2.10;;;;;;;;;;10439479;28;20040;-86
2022/10/03 08:50:07;;;;;;;6.53;3.08;;;;;;;;;;10455428;28;20116;-86
2022/10/03 08:55:35;;;;;;;5.53;2.40;;;;;;;;;;10400765;28;20067;-85
2022/10/03 09:01:01;;;;;;;12.23;3.70;;;;;;;;;;10437211;28;20102;-86
2022/10/03 09:06:38;;;;;;;6.22;2.65;;;;;;;;;;10446572;28;20032;-86
2022/10/03 09:12:19;;;;;;;5.53;2.10;;;;;;;;;;10436544;28;20076;-85
2022/10/03 09:17:49;;;;;;;3.83;2.00;;;;;;;;;;10456670;28;20118;-85
2022/10/03 09:23:07;;;;;;;5.45;2.20;;;;;;;;;;10431077;28;20416;-87
2022/10/03 09:28:35;;;;;;;8.57;1.98;;;;;;;;;;10434602;28;20041;-86
2022/10/03 09:34:18;;;;;;;2.45;1.48;;;;;;;;;;10443613;28;20043;-86
2022/10/03 09:39:55;;;;;;;7.47;2.00;;;;;;;;;;10400123;28;20408;-85
2022/10/03 09:45:21;;;;;;;9.88;3.05;;;;;;;;;;10457172;28;20043;-87
2022/10/03 09:50:45;;;;;;;;;;;;;;;;;;10397103;28;20040;-86
2022/10/03 09:56:18;;;;;;;8.25;2.47;;;;;;;;;;10413294;28;19925;-85
2022/10/03 10:01:30;;;;;;;5.28;1.90;;;;;;;;;;10451829;28;20415;-85
2022/10/03 10:06:52;;;;;;;3.33;1.25;;;;;;;;;;10425215;28;20396;-85
2022/10/03 10:12:36;;;;;;;5.75;2.42;;;;;;;;;;10400300;28;20067;-86
2022/10/03 10:18:16;;;;;;;7.88;2.15;;;;;;;;;;10408055;28;20061;-85
2022/10/03 10:23:43;;;;;;;4.15;1.45;;;;;;;;;;10392225;28;20140;-86
2022/10/03 10:29:20;;;;;;;2.55;1.42;;;;;;;;;;10400456;28;20397;-85
2022/10/03 10:34:57;;;;;;;2.95;1.65;;;;;;;;;;10417123;28;20049;-86
2022/10/03 10:40:36;;;;;;;4.60;2.47;;;;;;;;;;10389274;28;20055;-86
2022/10/03 10:45:49;;;;;;;5.47;3.00;;;;;;;;;;10398198;28;20069;-85
2022/10/03 10:51:46;;;;;;;5.57;2.50;;;;;;;;;;10411568;28;20063;-85
2022/10/03 10:57:09;;;;;;;6.47;3.13;;;;;;;;;;10414044;28;20132;-86
2022/10/03 11:02:48;;;;;;;3.63;2.03;;;;;;;;;;10419799;28;20508;-85
2022/10/03 11:08:43;;;;;;;2.33;1.42;;;;;;;;;;10412349;28;20047;-86
2022/10/03 11:14:30;;;;;;;1.92;1.05;;;;;;;;;;10268796;28;20046;-85
2022/10/03 11:20:09;;;;;;;1.92;1.13;;;;;;;;;;10406242;28;20037;-85
2022/10/03 11:25:56;;;;;;;1.95;1.05;;;;;;;;;;10415523;28;20798;-86
2022/10/03 11:31:30;;;;;;;2.08;1.13;;;;;;;;;;10361286;28;20543;-85
2022/10/03 11:37:12;;;;;;;2.58;1.35;;;;;;;;;;10422247;28;20036;-86
2022/10/03 11:42:27;;;;;;;3.92;1.58;;;;;;;;;;10436840;28;20045;-83
2022/10/03 11:47:47;;;;;;;1.77;1.10;;;;;;;;;;10438102;28;20064;-83
2022/10/03 11:53:14;;;;;;;3.05;1.38;;;;;;;;;;10451977;28;20048;-83
2022/10/03 11:58:41;;;;;;;4.80;1.50;;;;;;;;;;10434023;28;20501;-83
2022/10/03 12:03:53;;;;;;;2.35;1.55;;;;;;;;;;10449177;28;20051;-83
2022/10/03 12:09:10;;;;;;;4.78;1.63;;;;;;;;;;10426341;28;20148;-83
2022/10/03 12:14:27;;;;;;;2.30;1.60;;;;;;;;;;10430819;28;20053;-83
2022/10/03 12:19:39;;;;;;;5.30;2.08;;;;;;;;;;10441092;28;20140;-83
2022/10/03 12:24:45;;;;;;;2.85;1.52;;;;;;;;;;10438209;28;20048;-84
2022/10/03 12:29:58;;;;;;;1.92;1.33;;;;;;;;;;10430228;28;20037;-84
2022/10/03 12:35:13;;;;;;;4.25;2.30;;;;;;;;;;10426081;28;20060;-85
2022/10/03 12:40:23;;;;;;;3.70;2.03;;;;;;;;;;10421013;28;20052;-85
2022/10/03 12:45:32;;;;;;;4.35;1.75;;;;;;;;;;10425147;28;20560;-86
2022/10/03 12:50:44;;;;;;;2.63;1.55;;;;;;;;;;10424431;28;20247;-86
2022/10/03 12:55:58;;;;;;;2.70;1.50;;;;;;;;;;10426686;28;20045;-85
2022/10/03 13:01:10;;;;;;;4.70;1.48;;;;;;;;;;10423780;28;20044;-86
2022/10/03 13:06:35;;;;;;;2.05;1.30;;;;;;;;;;10412690;28;20047;-86
2022/10/03 13:12:06;;;;;;;3.47;1.40;;;;;;;;;;10424416;28;20831;-86
2022/10/03 13:17:19;;;;;;;3.55;1.70;;;;;;;;;;10425675;28;20044;-86
2022/10/03 13:22:37;;;;;;;3.78;1.20;;;;;;;;;;10415321;28;20526;-84
2022/10/03 13:27:45;;;;;;;7.50;2.83;;;;;;;;;;10416076;28;20049;-86
2022/10/03 13:32:54;;;;;;;4.55;2.10;;;;;;;;;;10423510;28;20087;-86
2022/10/03 13:38:25;;;;;;;2.97;1.95;;;;;;;;;;10422823;28;20053;-85
2022/10/03 13:43:34;;;;;;;9.77;5.20;;;;;;;;;;10423058;28;20037;-85
2022/10/03 13:48:39;;;;;;;31.05;17.27;;;;;;;;;;10415220;28;20601;-85
2022/10/03 13:53:59;;;;;;;7.18;4.22;;;;;;;;;;10422655;28;20048;-85
2022/10/03 13:59:09;;;;;;;4.82;2.30;;;;;;;;;;10424087;28;20083;-86
2022/10/03 14:04:45;;;;;;;5.57;2.13;;;;;;;;;;10424137;28;20145;-85
2022/10/03 14:10:12;;;;;;;3.72;1.85;;;;;;;;;;10396271;28;20056;-85
2022/10/03 14:15:30;;;;;;;3.95;1.73;;;;;;;;;;10416863;28;20047;-85
2022/10/03 14:20:41;;;;;;;2.97;1.48;;;;;;;;;;10415412;28;20064;-85
2022/10/03 14:25:56;;;;;;;3.42;1.48;;;;;;;;;;10421418;28;20045;-85
2022/10/03 14:31:08;;;;;;;3.72;1.20;;;;;;;;;;10415269;28;20072;-85
2022/10/03 14:36:30;;;;;;;3.50;1.90;;;;;;;;;;10419186;28;20041;-85
2022/10/03 14:41:46;;;;;;;4.05;1.80;;;;;;;;;;10419179;28;20435;-85
2022/10/03 14:46:55;;;;;;;3.28;1.73;;;;;;;;;;10423210;28;20053;-85
2022/10/03 14:52:02;;;;;;;2.30;1.27;;;;;;;;;;10425429;28;20045;-85
2022/10/03 14:57:31;;;;;;;5.57;1.60;;;;;;;;;;10435130;28;20048;-86
2022/10/03 15:02:45;;;;;;;4.75;1.52;;;;;;;;;;10427701;28;20112;-85
2022/10/03 15:07:49;;;;;;;2.35;1.30;;;;;;;;;;10444350;28;20045;-85
2022/10/03 15:13:08;;;;;;;1.90;0.90;;;;;;;;;;10432115;28;20431;-86
2022/10/03 15:18:16;;;;;;;5.15;1.42;;;;;;;;;;10426614;28;20064;-86
2022/10/03 15:23:21;;;;;;;1.60;1.02;;;;;;;;;;10439217;28;20155;-85
2022/10/03 15:28:30;;;;;;;2.83;0.77;;;;;;;;;;10437466;28;20048;-85
2022/10/03 15:33:35;;;;;;;2.17;1.08;;;;;;;;;;10450340;28;20049;-85
2022/10/03 15:38:53;;;;;;;3.05;1.20;;;;;;;;;;10439091;28;20060;-84
2022/10/03 15:44:02;;;;;;;3.78;1.88;;;;;;;;;;10438089;28;20047;-83
2022/10/03 15:49:09;;;;;;;4.97;1.27;;;;;;;;;;10428633;28;20055;-83
2022/10/03 15:54:18;;;;;;;4.47;1.40;;;;;;;;;;10427477;28;20041;-83
2022/10/03 15:59:29;;;;;;;3.08;1.08;;;;;;;;;;10422069;28;20536;-83
2022/10/03 16:04:34;;;;;;;1.13;0.55;;;;;;;;;;10429044;28;20128;-83
2022/10/03 16:09:48;;;;;;;2.35;0.85;;;;;;;;;;10418893;28;20063;-83
2022/10/03 16:15:03;;;;;;;1.88;0.82;;;;;;;;;;10424137;28;20115;-83
2022/10/03 16:20:14;;;;;;;2.70;1.40;;;;;;;;;;10423438;28;20041;-83
2022/10/03 16:25:22;;;;;;;5.00;3.10;;;;;;;;;;10424906;28;20047;-83
2022/10/03 16:30:31;;;;;;;2.80;1.80;;;;;;;;;;10439731;28;20052;-83
2022/10/03 16:35:38;;;;;;;2.65;1.20;;;;;;;;;;10426332;28;20047;-83
2022/10/03 16:40:41;;;;;;;1.77;1.50;;;;;;;;;;10425632;28;20045;-83
2022/10/03 16:45:47;;;;;;;2.83;0.90;;;;;;;;;;10430870;28;20128;-82
2022/10/03 16:50:53;;;;;;;1.90;0.80;;;;;;;;;;10424220;28;20618;-83
2022/10/03 16:55:59;;;;;;;1.63;1.27;;;;;;;;;;10431352;28;20040;-83
2022/10/03 17:01:06;;;;;;;1.15;0.80;;;;;;;;;;10425007;28;20420;-83
2022/10/03 17:06:30;;;;;;;;;;;;;;;;;;10430643;28;20044;-84
2022/10/03 17:11:37;;;;;;;1.42;0.95;;;;;;;;;;10420465;28;19928;-84
2022/10/03 17:16:47;;;;;;;2.15;1.08;;;;;;;;;;10413533;28;20432;-84
2022/10/03 17:21:53;;;;;;;2.22;1.48;;;;;;;;;;10388530;28;20502;-84
2022/10/03 17:27:00;;;;;;;;;;;;;;;;;;10415710;28;20041;-85
2022/10/03 17:32:10;;;;;;;;;;;;;;;;;;10397708;28;20278;-83
2022/10/03 17:37:34;;;;;;;3.40;1.80;;;;;;;;;;10399598;28;20031;-83
2022/10/03 17:42:44;;;;;;;3.58;1.95;;;;;;;;;;10395544;28;20044;-82
2022/10/03 17:47:55;;;;;;;3.85;2.20;;;;;;;;;;10395780;28;20037;-81
2022/10/03 17:53:00;;;;;;;4.35;2.53;;;;;;;;;;10398289;28;20535;-81
2022/10/03 17:58:06;;;;;;;5.18;2.60;;;;;;;;;;10409329;28;20461;-82
2022/10/03 18:03:19;;;;;;;5.40;3.00;;;;;;;;;;10415266;28;20048;-82
2022/10/03 18:08:26;;;;;;;4.03;2.60;;;;;;;;;;10398010;28;20038;-82
2022/10/03 18:13:38;;;;;;;6.05;2.83;;;;;;;;;;10394641;28;20041;-82
2022/10/03 18:19:08;;;;;;;3.25;2.35;;;;;;;;;;10387705;28;20048;-82
2022/10/03 18:24:27;;;;;;;7.28;4.43;;;;;;;;;;10408112;28;20056;-81
2022/10/03 18:29:35;;;;;;;8.65;4.60;;;;;;;;;;10378318;28;20056;-81
2022/10/03 18:34:44;;;;;;;6.90;4.43;;;;;;;;;;10409159;28;20041;-80
2022/10/03 18:39:48;;;;;;;6.50;2.88;;;;;;;;;;10403384;28;20047;-81
2022/10/03 18:44:57;;;;;;;5.22;3.20;;;;;;;;;;10373113;28;20045;-81
2022/10/03 18:50:09;;;;;;;5.03;2.80;;;;;;;;;;10403697;28;20041;-81
2022/10/03 18:55:18;;;;;;;4.07;2.38;;;;;;;;;;10388584;28;20039;-81
2022/10/03 19:00:26;;;;;;;4.28;2.67;;;;;;;;;;10408249;28;20041;-81
2022/10/03 19:05:35;;;;;;;6.47;3.95;;;;;;;;;;10436498;28;20032;-81
2022/10/03 19:10:42;;;;;;;5.35;3.17;;;;;;;;;;10435540;28;20678;-82
2022/10/03 19:16:15;;;;;;;10.57;5.43;;;;;;;;;;10411030;28;20037;-81
2022/10/03 19:21:21;;;;;;;11.70;6.30;;;;;;;;;;10417895;28;20041;-82
2022/10/03 19:26:30;;;;;;;8.18;4.28;;;;;;;;;;10435663;28;20041;-82
2022/10/03 19:31:40;;;;;;;6.57;4.10;;;;;;;;;;10427749;28;20041;-82
2022/10/03 19:36:46;;;;;;;9.25;4.97;;;;;;;;;;10431140;28;20049;-81
2022/10/03 19:41:54;;;;;;;9.27;4.97;;;;;;;;;;10462364;28;20118;-81
2022/10/03 19:47:05;;;;;;;10.77;5.97;;;;;;;;;;10459937;28;20047;-81
2022/10/03 19:52:14;;;;;;;10.07;5.07;;;;;;;;;;10430634;28;20049;-81
2022/10/03 19:57:20;;;;;;;14.48;6.75;;;;;;;;;;10447802;28;20044;-81
2022/10/03 20:02:25;;;;;;;12.87;6.40;;;;;;;;;;10463315;28;20050;-81
2022/10/03 20:07:44;;;;;;;9.45;5.22;;;;;;;;;;10462091;28;20401;-83
2022/10/03 20:12:51;;;;;;;6.43;3.28;;;;;;;;;;10450909;28;20049;-84
2022/10/03 20:18:00;;;;;;;2.80;2.10;;;;;;;;;;10458255;28;20056;-84
2022/10/03 20:23:07;;;;;;;3.38;2.00;;;;;;;;;;10452000;28;20047;-84
2022/10/03 20:28:20;;;;;;;7.45;2.45;;;;;;;;;;10454736;28;20496;-83
2022/10/03 20:33:27;;;;;;;3.25;2.50;;;;;;;;;;10448599;28;20132;-84
2022/10/03 20:38:51;;;;;;;5.00;2.58;;;;;;;;;;10449144;28;20166;-84
2022/10/03 20:44:01;;;;;;;4.07;2.88;;;;;;;;;;10470090;28;20060;-83
2022/10/03 20:49:14;;;;;;;3.55;2.17;;;;;;;;;;10442393;28;20040;-84
2022/10/03 20:54:20;;;;;;;3.08;2.20;;;;;;;;;;10460662;28;20059;-84
2022/10/03 20:59:26;;;;;;;;;;;;;;;;;;10442645;28;20857;-83
2022/10/03 21:04:32;;;;;;;4.23;2.70;;;;;;;;;;10423521;28;19979;-84
2022/10/03 21:09:42;;;;;;;4.60;2.95;;;;;;;;;;10423349;28;20035;-82
2022/10/03 21:14:53;;;;;;;4.70;2.95;;;;;;;;;;10422503;28;20041;-82
2022/10/03 21:20:05;;;;;;;4.35;3.25;;;;;;;;;;10427074;28;20575;-83
2022/10/03 21:25:20;;;;;;;5.57;2.92;;;;;;;;;;10425960;28;20045;-83
2022/10/03 21:30:45;;;;;;;4.65;3.03;;;;;;;;;;10429519;28;20132;-84
2022/10/03 21:35:50;;;;;;;4.95;2.92;;;;;;;;;;10417802;28;20037;-83
2022/10/03 21:41:22;;;;;;;5.10;2.67;;;;;;;;;;10424346;28;20497;-82
2022/10/03 21:46:34;;;;;;;5.10;2.95;;;;;;;;;;10421010;28;20041;-83
2022/10/03 21:51:43;;;;;;;5.45;3.40;;;;;;;;;;10412567;28;20045;-83
2022/10/03 21:56:57;;;;;;;5.13;3.22;;;;;;;;;;10421616;28;20052;-83
2022/10/03 22:02:07;;;;;;;4.68;3.05;;;;;;;;;;10423288;28;20048;-82
2022/10/03 22:07:15;;;;;;;5.28;3.28;;;;;;;;;;10420980;28;20044;-82
2022/10/03 22:12:20;;;;;;;5.60;3.28;;;;;;;;;;10423523;28;20060;-83
2022/10/03 22:17:28;;;;;;;8.48;3.45;;;;;;;;;;10424613;28;20417;-83
2022/10/03 22:22:53;;;;;;;7.05;3.58;;;;;;;;;;10417304;28;20057;-84
2022/10/03 22:28:04;;;;;;;6.72;3.33;;;;;;;;;;10422106;28;20033;-83
2022/10/03 22:33:15;;;;;;;8.43;3.45;;;;;;;;;;10421582;28;20404;-83
2022/10/03 22:38:22;;;;;;;4.05;2.72;;;;;;;;;;10421709;28;20128;-83
2022/10/03 22:43:29;;;;;;;3.63;2.20;;;;;;;;;;10420432;28;20523;-83
2022/10/03 22:48:36;;;;;;;4.07;2.40;;;;;;;;;;10422569;28;20615;-83
2022/10/03 22:53:43;;;;;;;3.60;2.67;;;;;;;;;;10407442;28;20067;-83
2022/10/03 22:58:50;;;;;;;3.97;2.33;;;;;;;;;;10421281;28;20551;-83
2022/10/03 23:03:54;;;;;;;5.22;2.65;;;;;;;;;;10421539;28;20731;-83
2022/10/03 23:09:06;;;;;;;2.42;1.83;;;;;;;;;;10420688;28;20123;-82
2022/10/03 23:14:19;;;;;;;3.13;2.10;;;;;;;;;;10420687;28;20033;-82
2022/10/03 23:19:34;;;;;;;4.05;2.10;;;;;;;;;;10427187;28;20037;-82
2022/10/03 23:24:42;;;;;;;4.30;2.30;;;;;;;;;;10418624;28;20409;-83
2022/10/03 23:30:09;;;;;;;4.32;1.75;;;;;;;;;;10428082;28;20547;-83
2022/10/03 23:35:16;;;;;;;2.38;1.80;;;;;;;;;;10427383;28;20040;-83
2022/10/03 23:40:33;;;;;;;5.63;2.00;;;;;;;;;;10426341;28;20488;-83
2022/10/03 23:45:38;;;;;;;2.28;1.60;;;;;;;;;;10418203;28;20124;-83
2022/10/03 23:50:46;;;;;;;3.88;1.80;;;;;;;;;;10424736;28;20507;-83
2022/10/03 23:55:50;;;;;;;3.05;1.50;;;;;;;;;;10420232;28;20052;-83
